createdAt,value
2018-12-27T00:00:36.468Z,6.10
2018-12-27T00:03:24.608Z,6.13
2018-12-27T00:06:05.947Z,6.20
2018-12-27T00:08:53.731Z,6.12
2018-12-27T00:11:34.155Z,6.07
2018-12-27T00:14:22.623Z,6.07
2018-12-27T00:17:05.439Z,5.96
2018-12-27T00:19:53.467Z,6.13
2018-12-27T00:22:34.622Z,6.10
2018-12-27T00:25:22.856Z,5.99
2018-12-27T00:28:04.095Z,6.15
2018-12-27T00:30:52.121Z,5.95
2018-12-27T00:33:32.933Z,6.07
2018-12-27T00:36:20.895Z,6.08
2018-12-27T00:39:04.601Z,6.13
2018-12-27T00:41:53.028Z,5.98
2018-12-27T00:44:34.626Z,5.95
2018-12-27T00:47:22.537Z,6.05
2018-12-27T00:50:03.287Z,6.04
2018-12-27T00:52:32.242Z,6.07
2018-12-27T00:55:13.318Z,5.98
2018-12-27T00:58:02.839Z,5.96
2018-12-27T01:00:43.675Z,5.97
2018-12-27T01:03:31.768Z,6.08
2018-12-27T01:06:13.073Z,5.89
2018-12-27T01:09:01.716Z,5.97
2018-12-27T01:11:43.149Z,5.89
2018-12-27T01:14:31.221Z,5.89
2018-12-27T01:17:12.173Z,5.88
2018-12-27T01:20:00.263Z,5.93
2018-12-27T01:22:41.048Z,5.76
2018-12-27T01:25:29.432Z,5.75
2018-12-27T01:28:10.110Z,5.73
2018-12-27T01:30:58.020Z,5.77
2018-12-27T01:33:39.112Z,5.73
2018-12-27T01:36:08.247Z,5.71
2018-12-27T01:38:49.242Z,5.74
2018-12-27T01:41:37.162Z,5.66
2018-12-27T01:44:18.395Z,5.64
2018-12-27T01:47:06.376Z,5.70
2018-12-27T01:49:47.555Z,5.58
2018-12-27T01:52:35.701Z,5.58
2018-12-27T01:55:16.554Z,5.57
2018-12-27T01:58:04.600Z,5.62
2018-12-27T02:00:45.824Z,5.66
2018-12-27T02:03:33.821Z,5.72
2018-12-27T02:06:14.489Z,5.68
2018-12-27T02:09:02.640Z,5.62
2018-12-27T02:11:43.803Z,5.70
2018-12-27T02:14:25.154Z,5.62
2018-12-27T02:17:12.929Z,5.41
2018-12-27T02:19:53.847Z,5.47
2018-12-27T02:22:41.811Z,5.60
2018-12-27T02:25:23.232Z,5.56
2018-12-27T02:28:11.219Z,5.51
2018-12-27T02:30:52.763Z,5.59
2018-12-27T02:33:40.723Z,5.51
2018-12-27T02:36:21.617Z,5.31
2018-12-27T02:39:09.488Z,5.44
2018-12-27T02:41:50.672Z,5.43
2018-12-27T02:44:38.651Z,5.46
2018-12-27T02:47:19.591Z,5.45
2018-12-27T02:50:07.962Z,5.52
2018-12-27T02:52:48.671Z,5.52
2018-12-27T02:55:29.479Z,5.47
2018-12-27T02:58:17.233Z,5.58
2018-12-27T03:00:58.655Z,5.48
2018-12-27T03:03:46.751Z,5.62
2018-12-27T03:06:27.568Z,5.44
2018-12-27T03:09:15.560Z,5.57
2018-12-27T03:11:56.655Z,5.57
2018-12-27T03:14:37.803Z,5.36
2018-12-27T03:17:19.033Z,5.45
2018-12-27T03:20:07.013Z,5.45
2018-12-27T03:22:47.845Z,5.53
2018-12-27T03:25:35.758Z,5.38
2018-12-27T03:28:17.981Z,5.37
2018-12-27T03:31:05.950Z,5.47
2018-12-27T03:33:52.636Z,5.25
2018-12-27T03:36:36.647Z,5.31
2018-12-27T03:39:17.910Z,5.43
2018-12-27T03:42:05.801Z,5.35
2018-12-27T03:44:46.874Z,5.42
2018-12-27T03:47:35.018Z,5.44
2018-12-27T03:50:15.931Z,5.33
2018-12-27T03:53:04.185Z,5.36
2018-12-27T03:55:45.105Z,5.39
2018-12-27T03:58:33.235Z,5.32
2018-12-27T04:01:14.484Z,5.36
2018-12-27T04:04:02.252Z,5.36
2018-12-27T04:06:43.442Z,5.34
2018-12-27T04:09:33.154Z,5.24
2018-12-27T04:12:14.431Z,5.36
2018-12-27T04:15:05.057Z,5.24
2018-12-27T04:17:46.426Z,5.22
2018-12-27T04:20:34.461Z,5.28
2018-12-27T04:23:15.711Z,5.17
2018-12-27T04:26:03.584Z,5.37
2018-12-27T04:28:44.435Z,5.26
2018-12-27T04:35:01.004Z,5.32
2018-12-27T04:37:42.102Z,5.30
2018-12-27T04:40:24.376Z,5.33
2018-12-27T04:46:04.265Z,5.32
2018-12-27T04:48:45.359Z,5.30
2018-12-27T04:51:26.136Z,5.34
2018-12-27T04:54:14.120Z,5.40
2018-12-27T04:56:55.152Z,5.43
2018-12-27T04:59:43.219Z,5.42
2018-12-27T05:02:26.121Z,5.43
2018-12-27T05:05:14.348Z,5.27
2018-12-27T05:07:54.980Z,5.36
2018-12-27T05:10:42.959Z,5.28
2018-12-27T05:13:24.490Z,5.39
2018-12-27T05:16:05.489Z,5.36
2018-12-27T05:18:46.545Z,5.31
2018-12-27T05:21:34.505Z,5.29
2018-12-27T05:24:27.809Z,5.28
2018-12-27T05:27:15.849Z,5.40
2018-12-27T05:29:57.373Z,5.42
2018-12-27T05:32:45.681Z,5.46
2018-12-27T05:35:27.041Z,5.32
2018-12-27T05:38:15.098Z,5.44
2018-12-27T05:40:56.164Z,5.50
2018-12-27T05:43:44.061Z,5.38
2018-12-27T05:46:26.818Z,5.41
2018-12-27T05:49:15.091Z,5.45
2018-12-27T05:51:55.627Z,5.46
2018-12-27T05:54:43.529Z,5.44
2018-12-27T05:57:24.870Z,5.50
2018-12-27T06:00:12.846Z,5.48
2018-12-27T06:02:54.069Z,5.47
2018-12-27T06:05:42.164Z,5.41
2018-12-27T06:08:23.130Z,5.34
2018-12-27T06:11:11.438Z,5.39
2018-12-27T06:13:39.999Z,5.45
2018-12-27T06:16:22.978Z,5.46
2018-12-27T06:19:03.622Z,5.28
2018-12-27T06:21:51.724Z,5.41
2018-12-27T06:24:32.962Z,5.44
2018-12-27T06:30:28.161Z,5.54
2018-12-27T06:33:16.123Z,5.60
2018-12-27T06:35:57.290Z,5.52
2018-12-27T06:38:45.327Z,5.42
2018-12-27T06:41:26.479Z,5.40
2018-12-27T06:44:14.741Z,5.48
2018-12-27T06:46:57.056Z,5.45
2018-12-27T06:49:45.008Z,5.35
2018-12-27T06:52:13.605Z,5.37
2018-12-27T06:55:01.923Z,5.42
2018-12-27T06:57:42.592Z,5.45
2018-12-27T07:00:30.459Z,5.46
2018-12-27T07:03:11.662Z,5.49
2018-12-27T07:05:59.744Z,5.47
2018-12-27T07:08:41.313Z,5.53
2018-12-27T07:11:29.206Z,5.51
2018-12-27T07:14:10.087Z,5.57
2018-12-27T07:16:50.915Z,5.56
2018-12-27T07:19:32.522Z,5.52
2018-12-27T07:22:20.511Z,5.52
2018-12-27T07:25:01.021Z,5.61
2018-12-27T07:27:49.056Z,5.59
2018-12-27T07:30:32.034Z,5.49
2018-12-27T07:33:20.518Z,5.48
2018-12-27T07:36:01.740Z,5.53
2018-12-27T07:38:49.744Z,5.52
2018-12-27T07:41:30.660Z,5.49
2018-12-27T07:44:18.522Z,5.49
2018-12-27T07:46:59.824Z,5.57
2018-12-27T07:49:48.013Z,5.59
2018-12-27T07:52:29.525Z,5.62
2018-12-27T07:55:17.286Z,5.66
2018-12-27T07:57:58.452Z,5.63
2018-12-27T08:00:46.932Z,5.66
2018-12-27T08:03:27.567Z,5.58
2018-12-27T08:06:15.633Z,5.66
2018-12-27T08:08:56.858Z,5.62
2018-12-27T08:11:45.341Z,5.68
2018-12-27T08:14:26.270Z,5.74
2018-12-27T08:17:07.052Z,5.86
2018-12-27T08:19:47.872Z,6.00
2018-12-27T08:22:35.905Z,6.08
2018-12-27T08:25:16.375Z,6.10
2018-12-27T08:28:04.277Z,6.12
2018-12-27T08:30:45.671Z,6.09
2018-12-27T08:33:33.760Z,5.98
2018-12-27T08:36:14.833Z,5.89
2018-12-27T08:39:14.884Z,5.89
2018-12-27T08:42:03.147Z,5.98
2018-12-27T08:44:43.856Z,5.97
2018-12-27T08:47:31.716Z,6.03
2018-12-27T08:50:15.177Z,5.96
2018-12-27T08:53:17.430Z,5.90
2018-12-27T08:55:52.223Z,5.82
2018-12-27T08:58:33.425Z,5.78
2018-12-27T09:01:14.515Z,5.84
2018-12-27T09:04:02.421Z,5.76
2018-12-27T09:06:43.810Z,5.72
2018-12-27T09:09:32.044Z,5.74
2018-12-27T09:12:12.864Z,5.85
2018-12-27T09:15:01.119Z,5.78
2018-12-27T09:17:42.432Z,5.71
2018-12-27T09:20:30.257Z,5.76
2018-12-27T09:22:58.772Z,5.72
2018-12-27T09:25:46.638Z,5.70
2018-12-27T09:28:27.242Z,5.61
2018-12-27T09:31:15.268Z,5.64
2018-12-27T09:33:56.390Z,5.65
2018-12-27T09:36:44.206Z,5.56
2018-12-27T09:39:25.543Z,5.68
2018-12-27T09:42:13.655Z,5.71
2018-12-27T09:44:54.826Z,5.72
2018-12-27T09:47:42.924Z,5.91
2018-12-27T09:50:11.510Z,5.76
2018-12-27T09:52:59.557Z,5.90
2018-12-27T09:55:40.512Z,5.87
2018-12-27T09:58:28.550Z,5.85
2018-12-27T10:01:09.532Z,5.77
2018-12-27T10:03:57.459Z,5.88
2018-12-27T10:06:38.825Z,5.86
2018-12-27T10:09:26.737Z,5.73
2018-12-27T10:12:08.101Z,5.78
2018-12-27T10:14:56.150Z,5.74
2018-12-27T10:17:39.592Z,5.70
2018-12-27T10:20:27.448Z,5.83
2018-12-27T10:23:08.435Z,5.81
2018-12-27T10:25:56.440Z,5.85
2018-12-27T10:28:37.906Z,5.73
2018-12-27T10:31:26.120Z,6.09
2018-12-27T10:34:07.311Z,6.00
2018-12-27T10:36:35.818Z,5.82
2018-12-27T10:39:16.788Z,5.93
2018-12-27T10:42:04.891Z,6.00
2018-12-27T10:44:45.747Z,6.06
2018-12-27T10:47:33.685Z,5.89
2018-12-27T10:50:14.896Z,6.07
2018-12-27T10:52:43.540Z,5.93
2018-12-27T10:55:26.312Z,5.96
2018-12-27T10:58:14.357Z,6.01
2018-12-27T11:00:55.673Z,6.12
2018-12-27T11:03:43.928Z,6.12
2018-12-27T11:06:12.452Z,6.08
2018-12-27T11:09:00.362Z,6.15
2018-12-27T11:11:41.522Z,6.16
2018-12-27T11:14:29.470Z,6.12
2018-12-27T11:17:10.662Z,6.10
2018-12-27T11:19:58.655Z,6.18
2018-12-27T11:22:39.782Z,6.13
2018-12-27T11:25:27.667Z,6.12
2018-12-27T11:28:09.186Z,6.01
2018-12-27T11:30:58.108Z,6.06
2018-12-27T11:33:59.353Z,6.10
2018-12-27T11:36:47.918Z,6.13
2018-12-27T11:39:36.152Z,6.09
2018-12-27T11:42:04.695Z,6.19
2018-12-27T11:44:45.636Z,6.25
2018-12-27T11:47:33.606Z,6.22
2018-12-27T11:50:02.114Z,6.07
2018-12-27T11:52:50.110Z,6.31
2018-12-27T11:55:31.506Z,6.20
2018-12-27T11:58:19.429Z,6.33
2018-12-27T12:01:01.068Z,6.08
2018-12-27T12:03:41.618Z,6.11
2018-12-27T12:06:22.719Z,6.21
2018-12-27T12:09:10.678Z,6.22
2018-12-27T12:11:51.782Z,6.25
2018-12-27T12:14:39.836Z,6.31
2018-12-27T12:17:21.092Z,6.20
2018-12-27T12:20:09.065Z,6.10
2018-12-27T12:22:50.146Z,6.24
2018-12-27T12:25:37.976Z,6.35
2018-12-27T12:28:20.881Z,6.37
2018-12-27T12:31:09.116Z,6.19
2018-12-27T12:33:50.564Z,6.33
2018-12-27T12:36:38.901Z,6.34
2018-12-27T12:39:19.790Z,6.28
2018-12-27T12:41:48.253Z,6.24
2018-12-27T12:44:29.597Z,6.27
2018-12-27T12:47:18.477Z,6.43
2018-12-27T12:49:59.944Z,6.33
2018-12-27T12:52:47.990Z,6.34
2018-12-27T12:55:30.707Z,6.36
2018-12-27T12:58:18.528Z,6.19
2018-12-27T13:00:47.083Z,6.27
2018-12-27T13:03:34.965Z,6.29
2018-12-27T13:06:18.050Z,6.37
2018-12-27T13:09:06.776Z,6.36
2018-12-27T13:11:48.039Z,6.28
2018-12-27T13:14:36.643Z,6.23
2018-12-27T13:17:17.583Z,6.24
2018-12-27T13:20:05.705Z,6.39
2018-12-27T13:22:46.767Z,6.32
2018-12-27T13:25:34.629Z,6.21
2018-12-27T13:28:16.157Z,6.27
2018-12-27T13:31:04.066Z,6.29
2018-12-27T13:33:44.842Z,6.31
2018-12-27T13:36:32.813Z,6.29
2018-12-27T13:39:14.079Z,6.39
2018-12-27T13:42:02.009Z,6.37
2018-12-27T13:44:43.435Z,6.30
2018-12-27T13:47:31.761Z,6.31
2018-12-27T13:50:14.752Z,6.39
2018-12-27T13:53:03.286Z,6.29
2018-12-27T13:55:44.512Z,6.29
2018-12-27T13:58:32.750Z,6.24
2018-12-27T14:01:13.878Z,6.25
2018-12-27T14:04:01.825Z,6.37
2018-12-27T14:06:43.727Z,6.21
2018-12-27T14:09:31.655Z,6.23
2018-12-27T14:12:12.324Z,6.16
2018-12-27T14:15:00.239Z,6.20
2018-12-27T14:17:41.607Z,6.38
2018-12-27T14:20:29.660Z,6.34
2018-12-27T14:23:10.267Z,6.40
2018-12-27T14:25:59.362Z,6.31
2018-12-27T14:28:40.473Z,6.32
2018-12-27T14:31:28.480Z,6.30
2018-12-27T14:34:10.393Z,6.19
2018-12-27T14:37:00.356Z,6.22
2018-12-27T14:39:41.160Z,6.26
2018-12-27T14:42:29.561Z,6.17
2018-12-27T14:45:10.674Z,6.31
2018-12-27T14:47:58.745Z,6.19
2018-12-27T14:50:39.651Z,6.24
2018-12-27T14:53:27.527Z,6.22
2018-12-27T14:56:09.019Z,6.24
2018-12-27T14:58:57.070Z,6.22
2018-12-27T15:01:37.510Z,6.19
2018-12-27T15:04:25.278Z,6.28
2018-12-27T15:07:06.717Z,6.29
2018-12-27T15:09:57.460Z,6.24
2018-12-27T15:12:46.383Z,6.35
2018-12-27T15:15:38.524Z,6.07
2018-12-27T15:18:19.722Z,6.17
2018-12-27T15:21:07.601Z,6.27
2018-12-27T15:23:48.973Z,6.25
2018-12-27T15:26:36.955Z,6.10
2018-12-27T15:29:17.842Z,6.12
2018-12-27T15:32:05.511Z,6.13
2018-12-27T15:34:46.980Z,6.20
2018-12-27T15:37:35.461Z,6.20
2018-12-27T15:40:16.201Z,6.22
2018-12-27T15:43:04.101Z,6.20
2018-12-27T15:45:45.169Z,6.19
2018-12-27T15:48:33.105Z,6.09
2018-12-27T15:51:16.381Z,6.03
2018-12-27T15:54:04.311Z,6.09
2018-12-27T15:56:46.101Z,6.13
2018-12-27T15:59:26.669Z,6.08
2018-12-27T16:02:07.995Z,5.94
2018-12-27T16:04:55.901Z,5.94
2018-12-27T16:07:37.386Z,5.92
2018-12-27T16:10:25.677Z,6.00
2018-12-27T16:13:06.414Z,5.79
2018-12-27T16:15:54.393Z,5.92
2018-12-27T16:18:35.672Z,5.80
2018-12-27T16:21:23.633Z,5.91
2018-12-27T16:24:04.743Z,5.93
2018-12-27T16:26:52.884Z,5.90
2018-12-27T16:29:36.492Z,5.86
2018-12-27T16:32:24.349Z,5.84
2018-12-27T16:35:07.275Z,5.83
2018-12-27T16:37:55.315Z,5.85
2018-12-27T16:40:37.374Z,5.85
2018-12-27T16:43:25.367Z,5.90
2018-12-27T16:46:07.147Z,6.01
2018-12-27T16:48:55.512Z,5.93
2018-12-27T16:51:37.773Z,6.00
2018-12-27T16:54:25.790Z,5.93
2018-12-27T16:56:54.942Z,6.05
2018-12-27T16:59:36.622Z,6.05
2018-12-27T17:02:05.358Z,6.08
2018-12-27T17:04:53.320Z,6.07
2018-12-27T17:07:33.782Z,5.89
2018-12-27T17:10:21.700Z,5.97
2018-12-27T17:13:03.043Z,5.97
2018-12-27T17:15:51.407Z,6.03
2018-12-27T17:18:34.243Z,6.17
2018-12-27T17:21:22.510Z,5.97
2018-12-27T17:24:03.877Z,6.04
2018-12-27T17:26:52.037Z,6.14
2018-12-27T17:29:32.860Z,6.05
2018-12-27T17:32:21.026Z,6.20
2018-12-27T17:35:02.024Z,6.04
2018-12-27T17:37:49.900Z,6.01
2018-12-27T17:40:31.267Z,6.08
2018-12-27T17:43:19.214Z,5.97
2018-12-27T17:46:00.132Z,6.01
2018-12-27T17:48:48.000Z,6.01
2018-12-27T17:51:29.223Z,5.98
2018-12-27T17:54:17.215Z,5.99
2018-12-27T17:56:58.390Z,6.04
2018-12-27T17:59:39.460Z,5.96
2018-12-27T18:02:21.409Z,5.92
2018-12-27T18:05:10.310Z,6.00
2018-12-27T18:07:51.707Z,5.99
2018-12-27T18:10:39.832Z,6.02
2018-12-27T18:13:20.856Z,5.99
2018-12-27T18:16:09.009Z,6.02
2018-12-27T18:18:49.858Z,6.04
2018-12-27T18:21:37.716Z,6.02
2018-12-27T18:24:19.778Z,5.98
2018-12-27T18:27:07.935Z,5.92
2018-12-27T18:29:49.302Z,6.08
2018-12-27T18:32:37.184Z,6.04
2018-12-27T18:35:18.305Z,6.02
2018-12-27T18:38:06.350Z,6.02
2018-12-27T18:40:47.518Z,6.02
2018-12-27T18:43:35.439Z,5.95
2018-12-27T18:46:16.909Z,6.02
2018-12-27T18:49:04.932Z,5.97
2018-12-27T18:54:56.722Z,5.92
2018-12-27T18:57:44.695Z,5.89
2018-12-27T19:00:26.532Z,5.84
2018-12-27T19:02:55.164Z,5.89
2018-12-27T19:05:43.156Z,5.85
2018-12-27T19:08:23.726Z,5.77
2018-12-27T19:11:50.614Z,5.85
2018-12-27T19:14:32.274Z,5.93
2018-12-27T19:17:02.521Z,5.81
2018-12-27T19:19:31.641Z,5.84
2018-12-27T19:22:37.520Z,5.93
2018-12-27T19:25:18.731Z,5.78
2018-12-27T19:28:06.713Z,6.00
2018-12-27T19:30:47.657Z,5.94
2018-12-27T19:33:35.746Z,6.08
2018-12-27T19:36:17.487Z,5.87
2018-12-27T19:39:06.006Z,5.94
2018-12-27T19:41:47.546Z,6.04
2018-12-27T19:44:36.369Z,5.95
2018-12-27T19:47:18.696Z,6.05
2018-12-27T19:50:06.863Z,5.99
2018-12-27T19:52:47.795Z,6.03
2018-12-27T19:55:36.067Z,5.91
2018-12-27T19:58:17.169Z,6.03
2018-12-27T20:00:59.230Z,5.98
2018-12-27T20:03:39.730Z,6.04
2018-12-27T20:06:27.871Z,6.03
2018-12-27T20:09:08.965Z,6.06
2018-12-27T20:11:38.025Z,6.14
2018-12-27T20:14:19.062Z,6.02
2018-12-27T20:17:07.358Z,5.97
2018-12-27T20:19:48.527Z,6.02
2018-12-27T20:22:36.717Z,6.05
2018-12-27T20:25:17.789Z,6.01
2018-12-27T20:28:06.283Z,5.93
2018-12-27T20:30:47.053Z,5.97
2018-12-27T20:33:35.080Z,5.96
2018-12-27T20:36:16.342Z,5.97
2018-12-27T20:38:44.974Z,6.01
2018-12-27T20:41:25.896Z,6.01
2018-12-27T20:44:14.092Z,6.12
2018-12-27T20:46:55.130Z,6.03
2018-12-27T20:49:43.198Z,6.01
2018-12-27T20:52:24.325Z,6.00
2018-12-27T20:55:12.326Z,5.96
2018-12-27T20:57:53.377Z,5.98
2018-12-27T21:00:34.633Z,6.07
2018-12-27T21:03:15.846Z,6.02
2018-12-27T21:05:56.922Z,5.88
2018-12-27T21:08:44.795Z,6.03
2018-12-27T21:11:25.920Z,6.05
2018-12-27T21:13:54.443Z,6.07
2018-12-27T21:16:34.890Z,6.02
2018-12-27T21:19:22.875Z,5.94
2018-12-27T21:22:04.017Z,5.97
2018-12-27T21:24:51.914Z,6.05
2018-12-27T21:27:32.432Z,6.05
2018-12-27T21:30:20.344Z,5.95
2018-12-27T21:32:59.259Z,6.02
2018-12-27T21:35:47.235Z,6.14
2018-12-27T21:38:27.719Z,5.96
2018-12-27T21:41:15.523Z,6.08
2018-12-27T21:43:56.816Z,6.06
2018-12-27T21:46:44.877Z,5.95
2018-12-27T21:49:26.223Z,6.03
2018-12-27T21:52:14.512Z,6.01
2018-12-27T21:54:55.725Z,6.09
2018-12-27T21:57:43.579Z,5.98
2018-12-27T22:00:24.697Z,6.10
2018-12-27T22:03:12.683Z,6.03
2018-12-27T22:05:54.022Z,6.08
2018-12-27T22:08:41.902Z,6.02
2018-12-27T22:11:23.008Z,6.11
2018-12-27T22:14:10.810Z,6.12
2018-12-27T22:16:54.110Z,6.03
2018-12-27T22:19:42.046Z,6.17
2018-12-27T22:22:23.525Z,6.08
2018-12-27T22:25:11.365Z,6.01
2018-12-27T22:27:52.698Z,6.04
2018-12-27T22:30:40.547Z,6.08
2018-12-27T22:33:22.003Z,6.03
2018-12-27T22:36:10.063Z,6.07
2018-12-27T22:38:51.577Z,6.13
2018-12-27T22:41:39.577Z,6.04
2018-12-27T22:44:20.479Z,6.00
2018-12-27T22:47:08.402Z,6.08
2018-12-27T22:49:49.916Z,6.11
2018-12-27T22:52:37.840Z,6.02
2018-12-27T22:55:18.715Z,6.12
2018-12-27T22:58:06.531Z,6.04
2018-12-27T23:00:47.997Z,6.15
2018-12-27T23:03:35.955Z,6.12
2018-12-27T23:06:16.862Z,6.08
2018-12-27T23:09:26.766Z,6.03
2018-12-27T23:12:07.992Z,5.93
2018-12-27T23:14:55.955Z,6.01
2018-12-27T23:17:36.849Z,6.13
2018-12-27T23:20:24.972Z,6.15
2018-12-27T23:23:06.216Z,6.10
2018-12-27T23:25:54.296Z,6.08
2018-12-27T23:28:35.104Z,6.05
2018-12-27T23:31:22.961Z,6.02
2018-12-27T23:34:04.303Z,6.16
2018-12-27T23:36:52.264Z,6.11
2018-12-27T23:39:32.731Z,6.12
2018-12-27T23:42:21.366Z,6.09
2018-12-27T23:45:01.880Z,6.05
2018-12-27T23:47:49.858Z,6.17
2018-12-27T23:50:31.316Z,6.19
2018-12-27T23:53:19.295Z,6.18
2018-12-27T23:56:00.374Z,6.17
2018-12-27T23:58:48.786Z,6.02
